sensor_id;sensor_type;location;lat;lon;timestamp;P1;durP1;ratioP1;P2;durP2;ratioP2
22634;SDS011;11484;50.858;4.384;2024-03-07T00:02:15;19.75;;;11.75;;
22634;SDS011;11484;50.858;4.384;2024-03-07T00:04:42;17.35;;;12.73;;
22634;SDS011;11484;50.858;4.384;2024-03-07T00:07:08;18.80;;;11.70;;
22634;SDS011;11484;50.858;4.384;2024-03-07T00:09:34;19.60;;;12.48;;
22634;SDS011;11484;50.858;4.384;2024-03-07T00:12:01;18.80;;;12.10;;
22634;SDS011;11484;50.858;4.384;2024-03-07T00:14:27;18.95;;;12.43;;
22634;SDS011;11484;50.858;4.384;2024-03-07T00:16:54;20.27;;;13.07;;
22634;SDS011;11484;50.858;4.384;2024-03-07T00:19:20;24.83;;;13.95;;
22634;SDS011;11484;50.858;4.384;2024-03-07T00:21:46;19.42;;;12.88;;
22634;SDS011;11484;50.858;4.384;2024-03-07T00:24:12;21.08;;;13.25;;
22634;SDS011;11484;50.858;4.384;2024-03-07T00:26:39;22.85;;;13.73;;
22634;SDS011;11484;50.858;4.384;2024-03-07T00:29:08;25.60;;;14.40;;
22634;SDS011;11484;50.858;4.384;2024-03-07T00:31:33;26.10;;;14.65;;
22634;SDS011;11484;50.858;4.384;2024-03-07T00:33:59;26.60;;;15.25;;
22634;SDS011;11484;50.858;4.384;2024-03-07T00:36:25;26.20;;;15.50;;
22634;SDS011;11484;50.858;4.384;2024-03-07T00:38:51;26.40;;;15.88;;
22634;SDS011;11484;50.858;4.384;2024-03-07T00:41:17;27.02;;;16.48;;
22634;SDS011;11484;50.858;4.384;2024-03-07T00:43:42;31.90;;;16.67;;
22634;SDS011;11484;50.858;4.384;2024-03-07T00:46:08;29.70;;;17.02;;
22634;SDS011;11484;50.858;4.384;2024-03-07T00:48:36;27.30;;;16.70;;
22634;SDS011;11484;50.858;4.384;2024-03-07T00:51:02;27.38;;;17.30;;
22634;SDS011;11484;50.858;4.384;2024-03-07T00:53:29;29.83;;;18.35;;
22634;SDS011;11484;50.858;4.384;2024-03-07T00:55:55;30.60;;;18.02;;
22634;SDS011;11484;50.858;4.384;2024-03-07T00:58:21;34.70;;;19.25;;
22634;SDS011;11484;50.858;4.384;2024-03-07T01:00:47;32.90;;;19.02;;
22634;SDS011;11484;50.858;4.384;2024-03-07T01:03:13;31.77;;;18.50;;
22634;SDS011;11484;50.858;4.384;2024-03-07T01:05:42;32.47;;;19.67;;
22634;SDS011;11484;50.858;4.384;2024-03-07T01:08:08;37.55;;;20.98;;
22634;SDS011;11484;50.858;4.384;2024-03-07T01:10:33;34.33;;;20.00;;
22634;SDS011;11484;50.858;4.384;2024-03-07T01:12:59;34.90;;;20.35;;
22634;SDS011;11484;50.858;4.384;2024-03-07T01:15:27;38.25;;;20.58;;
22634;SDS011;11484;50.858;4.384;2024-03-07T01:17:53;34.42;;;20.65;;
22634;SDS011;11484;50.858;4.384;2024-03-07T01:20:19;36.97;;;21.67;;
22634;SDS011;11484;50.858;4.384;2024-03-07T01:22:45;38.30;;;21.65;;
22634;SDS011;11484;50.858;4.384;2024-03-07T01:25:10;37.22;;;20.92;;
22634;SDS011;11484;50.858;4.384;2024-03-07T01:27:37;35.80;;;21.30;;
22634;SDS011;11484;50.858;4.384;2024-03-07T01:30:03;38.50;;;21.17;;
22634;SDS011;11484;50.858;4.384;2024-03-07T01:32:33;39.00;;;22.08;;
22634;SDS011;11484;50.858;4.384;2024-03-07T01:34:59;40.55;;;22.63;;
22634;SDS011;11484;50.858;4.384;2024-03-07T01:37:24;37.80;;;21.85;;
22634;SDS011;11484;50.858;4.384;2024-03-07T01:39:50;39.35;;;22.83;;
22634;SDS011;11484;50.858;4.384;2024-03-07T01:42:16;40.13;;;22.67;;
22634;SDS011;11484;50.858;4.384;2024-03-07T01:44:41;40.75;;;23.45;;
22634;SDS011;11484;50.858;4.384;2024-03-07T01:47:08;40.55;;;23.00;;
22634;SDS011;11484;50.858;4.384;2024-03-07T01:49:35;40.60;;;22.52;;
22634;SDS011;11484;50.858;4.384;2024-03-07T01:52:03;40.60;;;23.45;;
22634;SDS011;11484;50.858;4.384;2024-03-07T01:54:33;41.10;;;23.55;;
22634;SDS011;11484;50.858;4.384;2024-03-07T01:57:00;45.20;;;25.40;;
22634;SDS011;11484;50.858;4.384;2024-03-07T01:59:27;44.13;;;24.50;;
22634;SDS011;11484;50.858;4.384;2024-03-07T02:01:55;44.65;;;25.15;;
22634;SDS011;11484;50.858;4.384;2024-03-07T02:04:22;45.65;;;24.02;;
22634;SDS011;11484;50.858;4.384;2024-03-07T02:06:49;48.00;;;25.88;;
22634;SDS011;11484;50.858;4.384;2024-03-07T02:09:15;45.97;;;26.40;;
22634;SDS011;11484;50.858;4.384;2024-03-07T02:11:42;45.15;;;25.50;;
22634;SDS011;11484;50.858;4.384;2024-03-07T02:14:08;45.83;;;25.83;;
22634;SDS011;11484;50.858;4.384;2024-03-07T02:16:33;54.33;;;27.40;;
22634;SDS011;11484;50.858;4.384;2024-03-07T02:19:00;50.60;;;27.52;;
22634;SDS011;11484;50.858;4.384;2024-03-07T02:21:26;53.72;;;28.60;;
22634;SDS011;11484;50.858;4.384;2024-03-07T02:23:52;50.97;;;28.08;;
22634;SDS011;11484;50.858;4.384;2024-03-07T02:26:18;55.22;;;28.90;;
22634;SDS011;11484;50.858;4.384;2024-03-07T02:28:44;54.17;;;27.70;;
22634;SDS011;11484;50.858;4.384;2024-03-07T02:31:10;52.13;;;28.73;;
22634;SDS011;11484;50.858;4.384;2024-03-07T02:33:35;55.20;;;29.70;;
22634;SDS011;11484;50.858;4.384;2024-03-07T02:36:01;57.80;;;29.73;;
22634;SDS011;11484;50.858;4.384;2024-03-07T02:38:28;55.78;;;30.23;;
22634;SDS011;11484;50.858;4.384;2024-03-07T02:40:54;58.90;;;30.40;;
22634;SDS011;11484;50.858;4.384;2024-03-07T02:43:20;58.40;;;30.58;;
22634;SDS011;11484;50.858;4.384;2024-03-07T02:45:46;59.25;;;29.27;;
22634;SDS011;11484;50.858;4.384;2024-03-07T02:48:12;60.08;;;30.10;;
22634;SDS011;11484;50.858;4.384;2024-03-07T02:50:37;58.97;;;31.05;;
22634;SDS011;11484;50.858;4.384;2024-03-07T02:53:06;59.83;;;30.95;;
22634;SDS011;11484;50.858;4.384;2024-03-07T02:55:32;59.80;;;31.45;;
22634;SDS011;11484;50.858;4.384;2024-03-07T02:57:57;64.20;;;32.05;;
22634;SDS011;11484;50.858;4.384;2024-03-07T03:00:23;60.15;;;31.98;;
22634;SDS011;11484;50.858;4.384;2024-03-07T03:02:54;63.58;;;32.55;;
22634;SDS011;11484;50.858;4.384;2024-03-07T03:05:21;63.22;;;33.25;;
22634;SDS011;11484;50.858;4.384;2024-03-07T03:07:47;66.60;;;32.28;;
22634;SDS011;11484;50.858;4.384;2024-03-07T03:10:20;65.55;;;33.17;;
22634;SDS011;11484;50.858;4.384;2024-03-07T03:12:57;67.00;;;33.35;;
22634;SDS011;11484;50.858;4.384;2024-03-07T03:15:24;67.18;;;33.80;;
22634;SDS011;11484;50.858;4.384;2024-03-07T03:17:50;59.40;;;32.45;;
22634;SDS011;11484;50.858;4.384;2024-03-07T03:20:17;61.15;;;32.03;;
22634;SDS011;11484;50.858;4.384;2024-03-07T03:22:58;64.57;;;32.13;;
22634;SDS011;11484;50.858;4.384;2024-03-07T03:25:25;63.22;;;33.15;;
22634;SDS011;11484;50.858;4.384;2024-03-07T03:27:51;69.68;;;33.42;;
22634;SDS011;11484;50.858;4.384;2024-03-07T03:30:17;65.13;;;32.10;;
22634;SDS011;11484;50.858;4.384;2024-03-07T03:32:47;67.50;;;33.67;;
22634;SDS011;11484;50.858;4.384;2024-03-07T03:35:15;62.47;;;32.20;;
22634;SDS011;11484;50.858;4.384;2024-03-07T03:37:44;63.45;;;31.55;;
22634;SDS011;11484;50.858;4.384;2024-03-07T03:40:11;64.47;;;33.22;;
22634;SDS011;11484;50.858;4.384;2024-03-07T03:42:40;65.25;;;33.05;;
22634;SDS011;11484;50.858;4.384;2024-03-07T03:45:07;65.28;;;33.88;;
22634;SDS011;11484;50.858;4.384;2024-03-07T03:47:37;64.90;;;34.40;;
22634;SDS011;11484;50.858;4.384;2024-03-07T03:50:06;67.90;;;33.20;;
22634;SDS011;11484;50.858;4.384;2024-03-07T03:52:33;66.68;;;34.20;;
22634;SDS011;11484;50.858;4.384;2024-03-07T03:55:02;73.13;;;35.80;;
22634;SDS011;11484;50.858;4.384;2024-03-07T03:57:32;68.60;;;34.67;;
22634;SDS011;11484;50.858;4.384;2024-03-07T03:59:58;66.82;;;34.08;;
22634;SDS011;11484;50.858;4.384;2024-03-07T04:02:24;72.10;;;35.45;;
22634;SDS011;11484;50.858;4.384;2024-03-07T04:04:50;73.20;;;35.92;;
22634;SDS011;11484;50.858;4.384;2024-03-07T04:07:17;72.07;;;35.17;;
22634;SDS011;11484;50.858;4.384;2024-03-07T04:09:44;70.18;;;34.70;;
22634;SDS011;11484;50.858;4.384;2024-03-07T04:12:10;75.32;;;36.92;;
22634;SDS011;11484;50.858;4.384;2024-03-07T04:14:39;75.00;;;37.03;;
22634;SDS011;11484;50.858;4.384;2024-03-07T04:17:09;78.38;;;37.33;;
22634;SDS011;11484;50.858;4.384;2024-03-07T04:19:42;75.63;;;37.42;;
22634;SDS011;11484;50.858;4.384;2024-03-07T04:22:08;75.65;;;38.47;;
22634;SDS011;11484;50.858;4.384;2024-03-07T04:24:34;78.93;;;38.17;;
22634;SDS011;11484;50.858;4.384;2024-03-07T04:27:01;77.25;;;36.83;;
22634;SDS011;11484;50.858;4.384;2024-03-07T04:29:31;81.07;;;39.17;;
22634;SDS011;11484;50.858;4.384;2024-03-07T04:31:57;74.57;;;37.30;;
22634;SDS011;11484;50.858;4.384;2024-03-07T04:34:24;77.05;;;37.30;;
22634;SDS011;11484;50.858;4.384;2024-03-07T04:36:50;79.07;;;38.65;;
22634;SDS011;11484;50.858;4.384;2024-03-07T04:39:16;82.25;;;37.65;;
22634;SDS011;11484;50.858;4.384;2024-03-07T04:41:53;88.28;;;38.95;;
22634;SDS011;11484;50.858;4.384;2024-03-07T04:44:19;74.85;;;36.50;;
22634;SDS011;11484;50.858;4.384;2024-03-07T04:46:47;77.65;;;37.50;;
22634;SDS011;11484;50.858;4.384;2024-03-07T04:49:14;80.07;;;38.42;;
22634;SDS011;11484;50.858;4.384;2024-03-07T04:51:40;82.05;;;39.03;;
22634;SDS011;11484;50.858;4.384;2024-03-07T04:54:06;76.88;;;37.75;;
22634;SDS011;11484;50.858;4.384;2024-03-07T04:56:32;78.65;;;38.28;;
22634;SDS011;11484;50.858;4.384;2024-03-07T04:58:57;87.00;;;38.78;;
22634;SDS011;11484;50.858;4.384;2024-03-07T05:01:23;82.80;;;37.55;;
22634;SDS011;11484;50.858;4.384;2024-03-07T05:03:50;83.68;;;39.60;;
22634;SDS011;11484;50.858;4.384;2024-03-07T05:06:17;85.40;;;37.58;;
22634;SDS011;11484;50.858;4.384;2024-03-07T05:08:43;88.65;;;40.08;;
22634;SDS011;11484;50.858;4.384;2024-03-07T05:11:09;87.03;;;38.65;;
22634;SDS011;11484;50.858;4.384;2024-03-07T05:13:35;93.72;;;40.10;;
22634;SDS011;11484;50.858;4.384;2024-03-07T05:16:02;95.85;;;39.72;;
22634;SDS011;11484;50.858;4.384;2024-03-07T05:18:28;91.47;;;41.22;;
22634;SDS011;11484;50.858;4.384;2024-03-07T05:20:54;95.53;;;40.38;;
22634;SDS011;11484;50.858;4.384;2024-03-07T05:23:20;97.10;;;41.30;;
22634;SDS011;11484;50.858;4.384;2024-03-07T05:25:45;95.05;;;40.55;;
22634;SDS011;11484;50.858;4.384;2024-03-07T05:28:11;96.13;;;39.85;;
22634;SDS011;11484;50.858;4.384;2024-03-07T05:30:37;99.70;;;40.42;;
22634;SDS011;11484;50.858;4.384;2024-03-07T05:33:03;108.53;;;40.63;;
22634;SDS011;11484;50.858;4.384;2024-03-07T05:35:29;108.28;;;39.60;;
22634;SDS011;11484;50.858;4.384;2024-03-07T05:37:55;96.20;;;40.53;;
22634;SDS011;11484;50.858;4.384;2024-03-07T05:40:21;106.32;;;40.50;;
22634;SDS011;11484;50.858;4.384;2024-03-07T05:42:47;101.53;;;41.38;;
22634;SDS011;11484;50.858;4.384;2024-03-07T05:45:13;100.78;;;39.63;;
22634;SDS011;11484;50.858;4.384;2024-03-07T05:47:43;96.70;;;40.03;;
22634;SDS011;11484;50.858;4.384;2024-03-07T05:50:08;104.00;;;41.53;;
22634;SDS011;11484;50.858;4.384;2024-03-07T05:52:34;93.85;;;40.17;;
22634;SDS011;11484;50.858;4.384;2024-03-07T05:55:00;106.80;;;38.58;;
22634;SDS011;11484;50.858;4.384;2024-03-07T05:57:26;97.20;;;40.55;;
22634;SDS011;11484;50.858;4.384;2024-03-07T05:59:51;102.03;;;40.85;;
22634;SDS011;11484;50.858;4.384;2024-03-07T06:02:17;108.35;;;41.35;;
22634;SDS011;11484;50.858;4.384;2024-03-07T06:04:44;105.28;;;40.83;;
22634;SDS011;11484;50.858;4.384;2024-03-07T06:07:11;109.20;;;40.03;;
22634;SDS011;11484;50.858;4.384;2024-03-07T06:09:37;113.90;;;41.72;;
22634;SDS011;11484;50.858;4.384;2024-03-07T06:12:03;105.72;;;40.85;;
22634;SDS011;11484;50.858;4.384;2024-03-07T06:14:32;105.82;;;40.53;;
22634;SDS011;11484;50.858;4.384;2024-03-07T06:16:57;109.00;;;39.47;;
22634;SDS011;11484;50.858;4.384;2024-03-07T06:19:23;100.70;;;40.30;;
22634;SDS011;11484;50.858;4.384;2024-03-07T06:21:49;106.45;;;39.13;;
22634;SDS011;11484;50.858;4.384;2024-03-07T06:24:17;102.25;;;39.80;;
22634;SDS011;11484;50.858;4.384;2024-03-07T06:26:43;109.18;;;40.35;;
22634;SDS011;11484;50.858;4.384;2024-03-07T06:29:13;99.07;;;39.50;;
22634;SDS011;11484;50.858;4.384;2024-03-07T06:31:41;103.40;;;39.88;;
22634;SDS011;11484;50.858;4.384;2024-03-07T06:34:07;95.50;;;39.35;;
22634;SDS011;11484;50.858;4.384;2024-03-07T06:36:35;94.88;;;41.58;;
22634;SDS011;11484;50.858;4.384;2024-03-07T06:39:01;102.70;;;39.47;;
22634;SDS011;11484;50.858;4.384;2024-03-07T06:41:34;100.65;;;40.35;;
22634;SDS011;11484;50.858;4.384;2024-03-07T06:44:00;92.88;;;39.13;;
22634;SDS011;11484;50.858;4.384;2024-03-07T06:46:26;96.82;;;39.90;;
22634;SDS011;11484;50.858;4.384;2024-03-07T06:48:52;97.57;;;40.03;;
22634;SDS011;11484;50.858;4.384;2024-03-07T06:51:18;93.70;;;40.05;;
22634;SDS011;11484;50.858;4.384;2024-03-07T06:53:44;97.97;;;39.97;;
22634;SDS011;11484;50.858;4.384;2024-03-07T06:56:12;93.80;;;38.75;;
22634;SDS011;11484;50.858;4.384;2024-03-07T06:58:38;92.35;;;39.45;;
22634;SDS011;11484;50.858;4.384;2024-03-07T07:01:04;91.40;;;39.00;;
22634;SDS011;11484;50.858;4.384;2024-03-07T07:03:34;95.65;;;38.30;;
22634;SDS011;11484;50.858;4.384;2024-03-07T07:06:00;88.60;;;39.25;;
22634;SDS011;11484;50.858;4.384;2024-03-07T07:08:29;93.60;;;38.40;;
22634;SDS011;11484;50.858;4.384;2024-03-07T07:10:55;88.32;;;38.63;;
22634;SDS011;11484;50.858;4.384;2024-03-07T07:13:21;87.07;;;37.45;;
22634;SDS011;11484;50.858;4.384;2024-03-07T07:15:47;95.85;;;39.08;;
22634;SDS011;11484;50.858;4.384;2024-03-07T07:18:15;89.80;;;37.63;;
22634;SDS011;11484;50.858;4.384;2024-03-07T07:20:41;89.57;;;36.90;;
22634;SDS011;11484;50.858;4.384;2024-03-07T07:23:07;95.13;;;37.42;;
22634;SDS011;11484;50.858;4.384;2024-03-07T07:25:33;90.38;;;38.65;;
22634;SDS011;11484;50.858;4.384;2024-03-07T07:27:59;84.30;;;36.38;;
22634;SDS011;11484;50.858;4.384;2024-03-07T07:30:25;84.05;;;36.00;;
22634;SDS011;11484;50.858;4.384;2024-03-07T07:32:53;87.10;;;37.22;;
22634;SDS011;11484;50.858;4.384;2024-03-07T07:35:20;83.63;;;36.83;;
22634;SDS011;11484;50.858;4.384;2024-03-07T07:37:46;84.43;;;37.03;;
22634;SDS011;11484;50.858;4.384;2024-03-07T07:40:15;83.80;;;35.88;;
22634;SDS011;11484;50.858;4.384;2024-03-07T07:42:48;88.57;;;33.28;;
22634;SDS011;11484;50.858;4.384;2024-03-07T07:45:17;86.32;;;35.78;;
22634;SDS011;11484;50.858;4.384;2024-03-07T07:47:50;84.95;;;34.78;;
22634;SDS011;11484;50.858;4.384;2024-03-07T07:50:18;85.95;;;34.97;;
22634;SDS011;11484;50.858;4.384;2024-03-07T07:55:21;85.50;;;34.17;;
22634;SDS011;11484;50.858;4.384;2024-03-07T07:57:57;84.80;;;34.55;;
22634;SDS011;11484;50.858;4.384;2024-03-07T08:00:27;80.07;;;34.70;;
22634;SDS011;11484;50.858;4.384;2024-03-07T08:03:00;84.10;;;34.40;;
22634;SDS011;11484;50.858;4.384;2024-03-07T08:05:32;89.70;;;34.95;;
22634;SDS011;11484;50.858;4.384;2024-03-07T08:08:00;86.70;;;34.75;;
22634;SDS011;11484;50.858;4.384;2024-03-07T08:10:31;87.80;;;35.17;;
22634;SDS011;11484;50.858;4.384;2024-03-07T08:12:58;94.38;;;37.40;;
22634;SDS011;11484;50.858;4.384;2024-03-07T08:15:25;86.78;;;36.22;;
22634;SDS011;11484;50.858;4.384;2024-03-07T08:17:53;86.22;;;35.60;;
22634;SDS011;11484;50.858;4.384;2024-03-07T08:20:20;88.57;;;36.60;;
22634;SDS011;11484;50.858;4.384;2024-03-07T08:22:48;88.10;;;36.33;;
22634;SDS011;11484;50.858;4.384;2024-03-07T08:25:18;87.00;;;36.55;;
22634;SDS011;11484;50.858;4.384;2024-03-07T08:27:48;83.35;;;35.65;;
22634;SDS011;11484;50.858;4.384;2024-03-07T08:30:15;89.15;;;35.38;;
22634;SDS011;11484;50.858;4.384;2024-03-07T08:32:44;86.45;;;34.65;;
22634;SDS011;11484;50.858;4.384;2024-03-07T08:35:17;81.85;;;35.53;;
22634;SDS011;11484;50.858;4.384;2024-03-07T08:37:44;82.55;;;34.33;;
22634;SDS011;11484;50.858;4.384;2024-03-07T08:40:11;77.32;;;32.75;;
22634;SDS011;11484;50.858;4.384;2024-03-07T08:42:44;79.80;;;32.97;;
22634;SDS011;11484;50.858;4.384;2024-03-07T08:45:15;77.10;;;31.80;;
22634;SDS011;11484;50.858;4.384;2024-03-07T08:47:44;78.32;;;32.47;;
22634;SDS011;11484;50.858;4.384;2024-03-07T08:50:21;75.93;;;33.28;;
22634;SDS011;11484;50.858;4.384;2024-03-07T08:52:48;73.38;;;33.53;;
22634;SDS011;11484;50.858;4.384;2024-03-07T08:55:20;71.35;;;31.45;;
22634;SDS011;11484;50.858;4.384;2024-03-07T08:57:52;71.63;;;31.73;;
22634;SDS011;11484;50.858;4.384;2024-03-07T09:00:18;72.80;;;33.05;;
22634;SDS011;11484;50.858;4.384;2024-03-07T09:02:52;76.82;;;32.63;;
22634;SDS011;11484;50.858;4.384;2024-03-07T09:05:24;68.50;;;31.15;;
22634;SDS011;11484;50.858;4.384;2024-03-07T09:07:52;72.30;;;32.03;;
22634;SDS011;11484;50.858;4.384;2024-03-07T09:10:19;69.88;;;31.90;;
22634;SDS011;11484;50.858;4.384;2024-03-07T09:12:45;68.10;;;31.17;;
22634;SDS011;11484;50.858;4.384;2024-03-07T09:15:13;71.50;;;31.52;;
22634;SDS011;11484;50.858;4.384;2024-03-07T09:17:41;69.07;;;31.23;;
22634;SDS011;11484;50.858;4.384;2024-03-07T09:20:07;68.68;;;31.70;;
22634;SDS011;11484;50.858;4.384;2024-03-07T09:22:39;64.32;;;31.30;;
22634;SDS011;11484;50.858;4.384;2024-03-07T09:25:06;70.88;;;31.35;;
22634;SDS011;11484;50.858;4.384;2024-03-07T09:27:33;65.30;;;30.83;;
22634;SDS011;11484;50.858;4.384;2024-03-07T09:29:58;64.55;;;31.02;;
22634;SDS011;11484;50.858;4.384;2024-03-07T09:32:24;65.40;;;31.92;;
22634;SDS011;11484;50.858;4.384;2024-03-07T09:34:50;64.22;;;30.88;;
22634;SDS011;11484;50.858;4.384;2024-03-07T09:37:15;59.55;;;29.73;;
22634;SDS011;11484;50.858;4.384;2024-03-07T09:39:42;63.25;;;30.45;;
22634;SDS011;11484;50.858;4.384;2024-03-07T09:42:08;64.10;;;31.15;;
22634;SDS011;11484;50.858;4.384;2024-03-07T09:44:40;65.20;;;31.90;;
22634;SDS011;11484;50.858;4.384;2024-03-07T09:47:08;66.85;;;32.67;;
22634;SDS011;11484;50.858;4.384;2024-03-07T09:49:36;63.50;;;31.05;;
22634;SDS011;11484;50.858;4.384;2024-03-07T09:52:08;60.35;;;30.85;;
22634;SDS011;11484;50.858;4.384;2024-03-07T09:54:37;62.15;;;31.88;;
22634;SDS011;11484;50.858;4.384;2024-03-07T09:57:04;59.17;;;30.17;;
22634;SDS011;11484;50.858;4.384;2024-03-07T09:59:34;56.25;;;29.17;;
22634;SDS011;11484;50.858;4.384;2024-03-07T10:02:05;55.00;;;30.35;;
22634;SDS011;11484;50.858;4.384;2024-03-07T10:07:01;57.75;;;30.30;;
22634;SDS011;11484;50.858;4.384;2024-03-07T10:09:27;53.30;;;30.05;;
22634;SDS011;11484;50.858;4.384;2024-03-07T10:11:59;55.22;;;29.85;;
22634;SDS011;11484;50.858;4.384;2024-03-07T10:14:24;59.30;;;30.35;;
22634;SDS011;11484;50.858;4.384;2024-03-07T10:16:53;53.17;;;29.77;;
22634;SDS011;11484;50.858;4.384;2024-03-07T10:19:21;54.63;;;29.63;;
22634;SDS011;11484;50.858;4.384;2024-03-07T10:21:47;54.88;;;29.23;;
22634;SDS011;11484;50.858;4.384;2024-03-07T10:24:13;54.60;;;29.48;;
22634;SDS011;11484;50.858;4.384;2024-03-07T10:26:39;56.10;;;29.88;;
22634;SDS011;11484;50.858;4.384;2024-03-07T10:29:05;54.33;;;29.67;;
22634;SDS011;11484;50.858;4.384;2024-03-07T10:31:34;55.85;;;29.08;;
22634;SDS011;11484;50.858;4.384;2024-03-07T10:34:02;57.85;;;30.50;;
22634;SDS011;11484;50.858;4.384;2024-03-07T10:36:32;59.53;;;31.15;;
22634;SDS011;11484;50.858;4.384;2024-03-07T10:39:01;61.47;;;32.00;;
22634;SDS011;11484;50.858;4.384;2024-03-07T10:41:48;56.72;;;30.48;;
22634;SDS011;11484;50.858;4.384;2024-03-07T10:44:24;59.33;;;32.03;;
22634;SDS011;11484;50.858;4.384;2024-03-07T10:46:57;52.28;;;29.83;;
22634;SDS011;11484;50.858;4.384;2024-03-07T10:49:28;55.67;;;30.60;;
22634;SDS011;11484;50.858;4.384;2024-03-07T10:52:06;57.45;;;29.92;;
22634;SDS011;11484;50.858;4.384;2024-03-07T10:57:20;52.58;;;29.70;;
22634;SDS011;11484;50.858;4.384;2024-03-07T11:00:00;51.28;;;29.27;;
22634;SDS011;11484;50.858;4.384;2024-03-07T11:02:47;55.72;;;31.30;;
22634;SDS011;11484;50.858;4.384;2024-03-07T11:05:18;59.08;;;30.88;;
22634;SDS011;11484;50.858;4.384;2024-03-07T11:07:49;50.45;;;27.60;;
22634;SDS011;11484;50.858;4.384;2024-03-07T11:10:19;53.63;;;28.80;;
22634;SDS011;11484;50.858;4.384;2024-03-07T11:12:45;50.70;;;27.98;;
22634;SDS011;11484;50.858;4.384;2024-03-07T11:15:12;47.15;;;26.85;;
22634;SDS011;11484;50.858;4.384;2024-03-07T11:17:44;48.58;;;28.15;;
22634;SDS011;11484;50.858;4.384;2024-03-07T11:20:24;48.65;;;27.17;;
22634;SDS011;11484;50.858;4.384;2024-03-07T11:22:58;45.22;;;25.38;;
22634;SDS011;11484;50.858;4.384;2024-03-07T11:25:24;46.63;;;26.20;;
22634;SDS011;11484;50.858;4.384;2024-03-07T11:30:21;43.85;;;25.63;;
22634;SDS011;11484;50.858;4.384;2024-03-07T11:32:48;41.72;;;24.58;;
22634;SDS011;11484;50.858;4.384;2024-03-07T11:35:18;48.95;;;27.48;;
22634;SDS011;11484;50.858;4.384;2024-03-07T11:37:57;47.15;;;26.20;;
22634;SDS011;11484;50.858;4.384;2024-03-07T11:42:50;44.20;;;25.50;;
22634;SDS011;11484;50.858;4.384;2024-03-07T11:45:18;40.40;;;24.33;;
22634;SDS011;11484;50.858;4.384;2024-03-07T11:47:51;42.03;;;25.02;;
22634;SDS011;11484;50.858;4.384;2024-03-07T11:50:23;37.03;;;22.95;;
22634;SDS011;11484;50.858;4.384;2024-03-07T11:52:51;39.75;;;23.15;;
22634;SDS011;11484;50.858;4.384;2024-03-07T11:55:21;37.92;;;23.08;;
22634;SDS011;11484;50.858;4.384;2024-03-07T11:57:47;36.70;;;22.63;;
22634;SDS011;11484;50.858;4.384;2024-03-07T12:00:15;38.17;;;23.05;;
22634;SDS011;11484;50.858;4.384;2024-03-07T12:02:43;35.88;;;21.52;;
22634;SDS011;11484;50.858;4.384;2024-03-07T12:05:09;35.58;;;22.25;;
22634;SDS011;11484;50.858;4.384;2024-03-07T12:07:35;38.63;;;22.15;;
22634;SDS011;11484;50.858;4.384;2024-03-07T12:10:02;34.35;;;22.42;;
22634;SDS011;11484;50.858;4.384;2024-03-07T12:12:30;48.22;;;27.55;;
22634;SDS011;11484;50.858;4.384;2024-03-07T12:14:57;36.90;;;23.40;;
22634;SDS011;11484;50.858;4.384;2024-03-07T12:17:24;51.75;;;29.48;;
22634;SDS011;11484;50.858;4.384;2024-03-07T12:19:50;36.35;;;22.77;;
22634;SDS011;11484;50.858;4.384;2024-03-07T12:22:18;34.83;;;22.63;;
22634;SDS011;11484;50.858;4.384;2024-03-07T12:24:48;34.95;;;21.67;;
22634;SDS011;11484;50.858;4.384;2024-03-07T12:27:33;35.97;;;22.70;;
22634;SDS011;11484;50.858;4.384;2024-03-07T12:29:59;38.13;;;22.80;;
22634;SDS011;11484;50.858;4.384;2024-03-07T12:32:33;37.55;;;23.35;;
22634;SDS011;11484;50.858;4.384;2024-03-07T12:34:59;34.80;;;22.10;;
22634;SDS011;11484;50.858;4.384;2024-03-07T12:37:24;35.75;;;21.73;;
22634;SDS011;11484;50.858;4.384;2024-03-07T12:39:54;31.38;;;20.58;;
22634;SDS011;11484;50.858;4.384;2024-03-07T12:42:27;33.63;;;20.20;;
22634;SDS011;11484;50.858;4.384;2024-03-07T12:44:56;34.95;;;21.83;;
22634;SDS011;11484;50.858;4.384;2024-03-07T12:47:24;33.85;;;21.58;;
22634;SDS011;11484;50.858;4.384;2024-03-07T12:49:51;40.42;;;23.65;;
22634;SDS011;11484;50.858;4.384;2024-03-07T12:52:16;41.13;;;23.23;;
22634;SDS011;11484;50.858;4.384;2024-03-07T12:54:42;35.03;;;22.92;;
22634;SDS011;11484;50.858;4.384;2024-03-07T12:57:08;34.95;;;23.38;;
22634;SDS011;11484;50.858;4.384;2024-03-07T12:59:35;37.88;;;24.23;;
22634;SDS011;11484;50.858;4.384;2024-03-07T13:02:03;37.85;;;24.45;;
22634;SDS011;11484;50.858;4.384;2024-03-07T13:04:31;35.42;;;23.25;;
22634;SDS011;11484;50.858;4.384;2024-03-07T13:06:58;35.90;;;24.08;;
22634;SDS011;11484;50.858;4.384;2024-03-07T13:09:27;33.90;;;22.83;;
22634;SDS011;11484;50.858;4.384;2024-03-07T13:11:54;38.30;;;24.50;;
22634;SDS011;11484;50.858;4.384;2024-03-07T13:14:20;34.10;;;22.77;;
22634;SDS011;11484;50.858;4.384;2024-03-07T13:16:45;33.78;;;23.08;;
22634;SDS011;11484;50.858;4.384;2024-03-07T13:19:11;36.40;;;24.13;;
22634;SDS011;11484;50.858;4.384;2024-03-07T13:21:37;38.45;;;24.85;;
22634;SDS011;11484;50.858;4.384;2024-03-07T13:24:04;37.67;;;23.45;;
22634;SDS011;11484;50.858;4.384;2024-03-07T13:26:30;38.78;;;23.80;;
22634;SDS011;11484;50.858;4.384;2024-03-07T13:28:57;34.65;;;23.55;;
22634;SDS011;11484;50.858;4.384;2024-03-07T13:31:27;34.65;;;22.73;;
22634;SDS011;11484;50.858;4.384;2024-03-07T13:33:54;34.03;;;21.98;;
22634;SDS011;11484;50.858;4.384;2024-03-07T13:36:20;37.22;;;23.42;;
22634;SDS011;11484;50.858;4.384;2024-03-07T13:38:51;33.33;;;22.58;;
22634;SDS011;11484;50.858;4.384;2024-03-07T13:41:22;35.83;;;24.08;;
22634;SDS011;11484;50.858;4.384;2024-03-07T13:43:48;33.17;;;22.15;;
22634;SDS011;11484;50.858;4.384;2024-03-07T13:46:14;37.08;;;22.35;;
22634;SDS011;11484;50.858;4.384;2024-03-07T13:48:43;36.28;;;20.90;;
22634;SDS011;11484;50.858;4.384;2024-03-07T13:51:09;31.27;;;20.67;;
22634;SDS011;11484;50.858;4.384;2024-03-07T13:53:40;30.48;;;20.60;;
22634;SDS011;11484;50.858;4.384;2024-03-07T13:56:42;31.27;;;19.70;;
22634;SDS011;11484;50.858;4.384;2024-03-07T13:59:33;33.58;;;20.30;;
22634;SDS011;11484;50.858;4.384;2024-03-07T14:03:06;34.15;;;21.27;;
22634;SDS011;11484;50.858;4.384;2024-03-07T14:05:44;34.63;;;21.67;;
22634;SDS011;11484;50.858;4.384;2024-03-07T14:31:37;25.23;;;17.90;;
22634;SDS011;11484;50.858;4.384;2024-03-07T14:34:12;28.80;;;19.30;;
22634;SDS011;11484;50.858;4.384;2024-03-07T14:36:46;27.63;;;18.67;;
22634;SDS011;11484;50.858;4.384;2024-03-07T14:39:15;30.37;;;19.60;;
22634;SDS011;11484;50.858;4.384;2024-03-07T14:44:22;28.77;;;19.23;;
22634;SDS011;11484;50.858;4.384;2024-03-07T14:46:51;28.88;;;21.30;;
22634;SDS011;11484;50.858;4.384;2024-03-07T14:49:20;31.63;;;20.40;;
22634;SDS011;11484;50.858;4.384;2024-03-07T14:51:45;28.90;;;20.63;;
22634;SDS011;11484;50.858;4.384;2024-03-07T14:54:12;32.13;;;21.08;;
22634;SDS011;11484;50.858;4.384;2024-03-07T14:56:38;24.98;;;18.73;;
22634;SDS011;11484;50.858;4.384;2024-03-07T14:59:03;27.52;;;18.77;;
22634;SDS011;11484;50.858;4.384;2024-03-07T15:01:31;27.10;;;17.70;;
22634;SDS011;11484;50.858;4.384;2024-03-07T15:03:59;24.63;;;16.52;;
22634;SDS011;11484;50.858;4.384;2024-03-07T15:06:25;28.65;;;17.33;;